sensor_id;sensor_type;location;lat;lon;timestamp;P1;durP1;ratioP1;P2;durP2;ratioP2
4428;SDS011;2227;47.810;8.810;2024-02-21T04:48:55;747.63;;;502.27;;
4428;SDS011;2227;47.810;8.810;2024-02-21T04:51:22;748.88;;;505.23;;
4428;SDS011;2227;47.810;8.810;2024-02-21T04:53:49;747.25;;;505.35;;
4428;SDS011;2227;47.810;8.810;2024-02-21T04:56:16;748.05;;;502.92;;
4428;SDS011;2227;47.810;8.810;2024-02-21T04:58:43;747.78;;;506.45;;
4428;SDS011;2227;47.810;8.810;2024-02-21T05:01:09;747.83;;;504.65;;
4428;SDS011;2227;47.810;8.810;2024-02-21T05:03:36;747.80;;;503.97;;
4428;SDS011;2227;47.810;8.810;2024-02-21T05:06:04;746.10;;;506.27;;
4428;SDS011;2227;47.810;8.810;2024-02-21T05:08:32;742.15;;;501.60;;
4428;SDS011;2227;47.810;8.810;2024-02-21T05:10:59;745.22;;;508.88;;
4428;SDS011;2227;47.810;8.810;2024-02-21T05:13:26;746.45;;;508.45;;
4428;SDS011;2227;47.810;8.810;2024-02-21T05:15:52;751.10;;;510.98;;
4428;SDS011;2227;47.810;8.810;2024-02-21T05:18:19;753.15;;;506.60;;
4428;SDS011;2227;47.810;8.810;2024-02-21T05:20:47;750.72;;;501.02;;
4428;SDS011;2227;47.810;8.810;2024-02-21T05:23:13;755.00;;;504.63;;
4428;SDS011;2227;47.810;8.810;2024-02-21T05:25:40;754.90;;;507.00;;
4428;SDS011;2227;47.810;8.810;2024-02-21T05:28:07;760.03;;;505.03;;
4428;SDS011;2227;47.810;8.810;2024-02-21T05:30:34;753.03;;;504.08;;
4428;SDS011;2227;47.810;8.810;2024-02-21T05:33:04;753.90;;;508.42;;
4428;SDS011;2227;47.810;8.810;2024-02-21T05:35:34;762.20;;;506.92;;
4428;SDS011;2227;47.810;8.810;2024-02-21T05:38:02;753.53;;;495.92;;
4428;SDS011;2227;47.810;8.810;2024-02-21T05:40:37;759.83;;;508.45;;
4428;SDS011;2227;47.810;8.810;2024-02-21T05:43:04;759.60;;;511.10;;
4428;SDS011;2227;47.810;8.810;2024-02-21T05:45:31;763.15;;;517.55;;
4428;SDS011;2227;47.810;8.810;2024-02-21T05:47:58;760.00;;;514.17;;
4428;SDS011;2227;47.810;8.810;2024-02-21T05:50:26;752.63;;;508.70;;
4428;SDS011;2227;47.810;8.810;2024-02-21T05:52:55;749.45;;;508.35;;
4428;SDS011;2227;47.810;8.810;2024-02-21T05:55:23;744.97;;;505.30;;
4428;SDS011;2227;47.810;8.810;2024-02-21T05:57:49;743.90;;;505.25;;
4428;SDS011;2227;47.810;8.810;2024-02-21T06:00:19;742.50;;;499.08;;
4428;SDS011;2227;47.810;8.810;2024-02-21T06:02:46;744.85;;;501.95;;
4428;SDS011;2227;47.810;8.810;2024-02-21T06:05:13;741.83;;;501.70;;
4428;SDS011;2227;47.810;8.810;2024-02-21T06:07:40;743.25;;;504.17;;
4428;SDS011;2227;47.810;8.810;2024-02-21T06:10:06;751.05;;;504.73;;
4428;SDS011;2227;47.810;8.810;2024-02-21T06:12:34;737.53;;;495.98;;
4428;SDS011;2227;47.810;8.810;2024-02-21T06:15:01;735.25;;;497.77;;
4428;SDS011;2227;47.810;8.810;2024-02-21T06:17:27;737.67;;;494.63;;
4428;SDS011;2227;47.810;8.810;2024-02-21T06:19:54;735.38;;;491.75;;
4428;SDS011;2227;47.810;8.810;2024-02-21T06:22:21;736.83;;;493.55;;
4428;SDS011;2227;47.810;8.810;2024-02-21T06:24:48;735.83;;;495.35;;
4428;SDS011;2227;47.810;8.810;2024-02-21T06:27:15;734.20;;;493.92;;
4428;SDS011;2227;47.810;8.810;2024-02-21T06:29:42;735.15;;;492.67;;
4428;SDS011;2227;47.810;8.810;2024-02-21T06:32:09;750.28;;;494.70;;
4428;SDS011;2227;47.810;8.810;2024-02-21T06:34:36;736.05;;;495.50;;
4428;SDS011;2227;47.810;8.810;2024-02-21T06:37:03;735.67;;;498.50;;
4428;SDS011;2227;47.810;8.810;2024-02-21T06:39:30;733.95;;;498.10;;
4428;SDS011;2227;47.810;8.810;2024-02-21T06:41:57;737.30;;;494.65;;
4428;SDS011;2227;47.810;8.810;2024-02-21T06:44:29;733.70;;;496.05;;
4428;SDS011;2227;47.810;8.810;2024-02-21T06:46:56;738.28;;;499.45;;
4428;SDS011;2227;47.810;8.810;2024-02-21T06:49:22;736.58;;;495.25;;
4428;SDS011;2227;47.810;8.810;2024-02-21T06:51:49;740.97;;;498.40;;
4428;SDS011;2227;47.810;8.810;2024-02-21T06:54:16;740.20;;;494.13;;
4428;SDS011;2227;47.810;8.810;2024-02-21T06:56:43;742.00;;;501.92;;
4428;SDS011;2227;47.810;8.810;2024-02-21T06:59:10;745.33;;;501.23;;
4428;SDS011;2227;47.810;8.810;2024-02-21T07:01:37;739.58;;;497.77;;
4428;SDS011;2227;47.810;8.810;2024-02-21T07:04:04;740.13;;;501.10;;
4428;SDS011;2227;47.810;8.810;2024-02-21T07:06:31;740.55;;;500.63;;
4428;SDS011;2227;47.810;8.810;2024-02-21T07:09:01;741.58;;;498.67;;
4428;SDS011;2227;47.810;8.810;2024-02-21T07:11:28;745.88;;;504.98;;
4428;SDS011;2227;47.810;8.810;2024-02-21T07:13:55;744.87;;;503.27;;
4428;SDS011;2227;47.810;8.810;2024-02-21T07:16:22;743.53;;;502.63;;
4428;SDS011;2227;47.810;8.810;2024-02-21T07:18:49;740.28;;;500.38;;
4428;SDS011;2227;47.810;8.810;2024-02-21T07:21:16;741.30;;;499.23;;
4428;SDS011;2227;47.810;8.810;2024-02-21T07:23:43;739.05;;;498.90;;
4428;SDS011;2227;47.810;8.810;2024-02-21T07:26:10;744.65;;;507.48;;
4428;SDS011;2227;47.810;8.810;2024-02-21T07:28:37;747.90;;;511.70;;
4428;SDS011;2227;47.810;8.810;2024-02-21T07:31:03;745.75;;;510.05;;
4428;SDS011;2227;47.810;8.810;2024-02-21T07:33:30;748.03;;;510.70;;
4428;SDS011;2227;47.810;8.810;2024-02-21T07:35:57;744.92;;;521.45;;
4428;SDS011;2227;47.810;8.810;2024-02-21T07:38:24;749.25;;;525.88;;
4428;SDS011;2227;47.810;8.810;2024-02-21T07:40:51;756.05;;;527.40;;
4428;SDS011;2227;47.810;8.810;2024-02-21T07:43:17;759.45;;;546.85;;
4428;SDS011;2227;47.810;8.810;2024-02-21T07:45:44;760.28;;;570.20;;
4428;SDS011;2227;47.810;8.810;2024-02-21T07:48:11;748.20;;;607.58;;
4428;SDS011;2227;47.810;8.810;2024-02-21T07:50:38;757.65;;;615.58;;
4428;SDS011;2227;47.810;8.810;2024-02-21T07:53:05;748.35;;;624.25;;
4428;SDS011;2227;47.810;8.810;2024-02-21T07:55:32;749.33;;;644.40;;
4428;SDS011;2227;47.810;8.810;2024-02-21T07:57:59;765.83;;;681.92;;
4428;SDS011;2227;47.810;8.810;2024-02-21T08:00:25;773.67;;;690.10;;
4428;SDS011;2227;47.810;8.810;2024-02-21T08:02:52;786.38;;;701.78;;
4428;SDS011;2227;47.810;8.810;2024-02-21T08:05:19;793.45;;;709.45;;
4428;SDS011;2227;47.810;8.810;2024-02-21T08:07:46;803.95;;;719.85;;
4428;SDS011;2227;47.810;8.810;2024-02-21T08:10:14;803.50;;;719.58;;
4428;SDS011;2227;47.810;8.810;2024-02-21T08:12:41;809.30;;;725.40;;
4428;SDS011;2227;47.810;8.810;2024-02-21T08:15:08;817.17;;;732.67;;
4428;SDS011;2227;47.810;8.810;2024-02-21T08:17:36;808.88;;;724.67;;
4428;SDS011;2227;47.810;8.810;2024-02-21T08:20:04;807.57;;;721.80;;
4428;SDS011;2227;47.810;8.810;2024-02-21T08:22:31;802.78;;;716.88;;
4428;SDS011;2227;47.810;8.810;2024-02-21T08:24:58;802.88;;;716.50;;
4428;SDS011;2227;47.810;8.810;2024-02-21T08:27:25;801.45;;;714.75;;
4428;SDS011;2227;47.810;8.810;2024-02-21T08:29:52;791.83;;;705.17;;
4428;SDS011;2227;47.810;8.810;2024-02-21T08:32:19;797.50;;;711.60;;
4428;SDS011;2227;47.810;8.810;2024-02-21T08:34:46;791.28;;;705.58;;
4428;SDS011;2227;47.810;8.810;2024-02-21T08:37:13;803.13;;;718.25;;
4428;SDS011;2227;47.810;8.810;2024-02-21T08:39:40;800.38;;;715.22;;
4428;SDS011;2227;47.810;8.810;2024-02-21T08:42:06;814.92;;;729.28;;
4428;SDS011;2227;47.810;8.810;2024-02-21T08:44:33;832.88;;;746.97;;
4428;SDS011;2227;47.810;8.810;2024-02-21T08:47:00;839.55;;;753.75;;
4428;SDS011;2227;47.810;8.810;2024-02-21T08:49:30;833.33;;;748.10;;
4428;SDS011;2227;47.810;8.810;2024-02-21T08:52:00;829.53;;;744.47;;
4428;SDS011;2227;47.810;8.810;2024-02-21T08:56:59;833.47;;;749.38;;
4428;SDS011;2227;47.810;8.810;2024-02-21T08:59:26;833.45;;;749.60;;
4428;SDS011;2227;47.810;8.810;2024-02-21T09:01:52;844.03;;;759.60;;
4428;SDS011;2227;47.810;8.810;2024-02-21T09:04:19;849.50;;;765.03;;
4428;SDS011;2227;47.810;8.810;2024-02-21T09:06:46;839.90;;;755.50;;
4428;SDS011;2227;47.810;8.810;2024-02-21T09:09:13;843.20;;;758.47;;
4428;SDS011;2227;47.810;8.810;2024-02-21T09:11:40;841.95;;;757.45;;
4428;SDS011;2227;47.810;8.810;2024-02-21T09:14:07;848.92;;;763.92;;
4428;SDS011;2227;47.810;8.810;2024-02-21T09:16:34;854.60;;;769.55;;
4428;SDS011;2227;47.810;8.810;2024-02-21T09:19:01;868.00;;;782.85;;
4428;SDS011;2227;47.810;8.810;2024-02-21T09:21:28;885.63;;;798.92;;
4428;SDS011;2227;47.810;8.810;2024-02-21T09:23:55;886.53;;;799.83;;
4428;SDS011;2227;47.810;8.810;2024-02-21T09:26:25;889.63;;;803.53;;
4428;SDS011;2227;47.810;8.810;2024-02-21T09:28:52;894.53;;;808.03;;
4428;SDS011;2227;47.810;8.810;2024-02-21T09:31:20;902.38;;;816.20;;
4428;SDS011;2227;47.810;8.810;2024-02-21T09:33:46;891.42;;;806.00;;
4428;SDS011;2227;47.810;8.810;2024-02-21T09:36:13;902.22;;;816.10;;
4428;SDS011;2227;47.810;8.810;2024-02-21T09:38:41;905.28;;;818.88;;
4428;SDS011;2227;47.810;8.810;2024-02-21T09:43:51;907.93;;;822.40;;
4428;SDS011;2227;47.810;8.810;2024-02-21T09:46:21;908.88;;;823.17;;
4428;SDS011;2227;47.810;8.810;2024-02-21T09:51:41;911.20;;;826.30;;
4428;SDS011;2227;47.810;8.810;2024-02-21T09:54:10;916.67;;;831.67;;
4428;SDS011;2227;47.810;8.810;2024-02-21T09:56:44;936.42;;;851.00;;
4428;SDS011;2227;47.810;8.810;2024-02-21T09:59:13;949.97;;;864.67;;
4428;SDS011;2227;47.810;8.810;2024-02-21T10:01:42;961.20;;;875.30;;
4428;SDS011;2227;47.810;8.810;2024-02-21T10:04:10;954.40;;;868.97;;
4428;SDS011;2227;47.810;8.810;2024-02-21T10:06:37;934.88;;;850.25;;
4428;SDS011;2227;47.810;8.810;2024-02-21T10:09:05;928.13;;;843.67;;
4428;SDS011;2227;47.810;8.810;2024-02-21T10:11:33;923.63;;;838.63;;
4428;SDS011;2227;47.810;8.810;2024-02-21T10:14:07;921.47;;;836.28;;
4428;SDS011;2227;47.810;8.810;2024-02-21T10:16:35;918.60;;;833.30;;
4428;SDS011;2227;47.810;8.810;2024-02-21T10:19:04;916.13;;;830.80;;
4428;SDS011;2227;47.810;8.810;2024-02-21T10:21:31;918.72;;;832.75;;
4428;SDS011;2227;47.810;8.810;2024-02-21T10:23:58;914.15;;;827.65;;
4428;SDS011;2227;47.810;8.810;2024-02-21T10:26:24;911.88;;;826.97;;
4428;SDS011;2227;47.810;8.810;2024-02-21T10:28:51;907.33;;;821.78;;
4428;SDS011;2227;47.810;8.810;2024-02-21T10:31:25;906.42;;;821.42;;
4428;SDS011;2227;47.810;8.810;2024-02-21T10:33:54;916.08;;;829.65;;
4428;SDS011;2227;47.810;8.810;2024-02-21T10:36:25;911.63;;;825.67;;
4428;SDS011;2227;47.810;8.810;2024-02-21T10:38:52;903.97;;;816.88;;
4428;SDS011;2227;47.810;8.810;2024-02-21T10:41:21;906.63;;;819.95;;
4428;SDS011;2227;47.810;8.810;2024-02-21T10:43:49;898.80;;;811.95;;
4428;SDS011;2227;47.810;8.810;2024-02-21T10:46:23;867.83;;;781.33;;
4428;SDS011;2227;47.810;8.810;2024-02-21T10:49:35;849.58;;;763.75;;
4428;SDS011;2227;47.810;8.810;2024-02-21T10:51:48;850.63;;;765.53;;
4428;SDS011;2227;47.810;8.810;2024-02-21T10:54:21;866.00;;;781.75;;
4428;SDS011;2227;47.810;8.810;2024-02-21T10:56:49;888.85;;;804.15;;
4428;SDS011;2227;47.810;8.810;2024-02-21T10:59:17;902.28;;;816.97;;
4428;SDS011;2227;47.810;8.810;2024-02-21T11:01:45;905.13;;;819.15;;
4428;SDS011;2227;47.810;8.810;2024-02-21T11:04:12;904.85;;;820.40;;
4428;SDS011;2227;47.810;8.810;2024-02-21T11:06:39;900.33;;;816.10;;
4428;SDS011;2227;47.810;8.810;2024-02-21T11:09:08;916.15;;;830.40;;
4428;SDS011;2227;47.810;8.810;2024-02-21T11:11:40;916.88;;;831.08;;
4428;SDS011;2227;47.810;8.810;2024-02-21T11:16:47;909.65;;;823.13;;
4428;SDS011;2227;47.810;8.810;2024-02-21T11:19:27;911.40;;;824.67;;
4428;SDS011;2227;47.810;8.810;2024-02-21T11:21:55;901.57;;;815.07;;
4428;SDS011;2227;47.810;8.810;2024-02-21T11:24:30;895.67;;;809.33;;
4428;SDS011;2227;47.810;8.810;2024-02-21T11:29:54;878.15;;;791.13;;
4428;SDS011;2227;47.810;8.810;2024-02-21T11:32:22;874.00;;;787.13;;
4428;SDS011;2227;47.810;8.810;2024-02-21T11:34:59;856.35;;;769.50;;
4428;SDS011;2227;47.810;8.810;2024-02-21T11:37:35;852.90;;;766.38;;
4428;SDS011;2227;47.810;8.810;2024-02-21T11:40:06;850.92;;;765.38;;
4428;SDS011;2227;47.810;8.810;2024-02-21T11:42:37;854.33;;;769.22;;
4428;SDS011;2227;47.810;8.810;2024-02-21T11:45:06;856.28;;;770.42;;
4428;SDS011;2227;47.810;8.810;2024-02-21T11:47:35;854.42;;;768.78;;
4428;SDS011;2227;47.810;8.810;2024-02-21T11:50:09;860.15;;;773.22;;
4428;SDS011;2227;47.810;8.810;2024-02-21T11:52:36;848.05;;;761.20;;
4428;SDS011;2227;47.810;8.810;2024-02-21T11:55:04;846.95;;;760.25;;
4428;SDS011;2227;47.810;8.810;2024-02-21T11:57:32;843.73;;;757.03;;
4428;SDS011;2227;47.810;8.810;2024-02-21T12:02:42;845.00;;;758.90;;
4428;SDS011;2227;47.810;8.810;2024-02-21T12:05:10;849.30;;;763.40;;
4428;SDS011;2227;47.810;8.810;2024-02-21T12:07:37;852.05;;;766.05;;
4428;SDS011;2227;47.810;8.810;2024-02-21T12:10:10;850.70;;;764.72;;
4428;SDS011;2227;47.810;8.810;2024-02-21T12:12:38;862.97;;;776.05;;
4428;SDS011;2227;47.810;8.810;2024-02-21T12:15:07;850.10;;;763.70;;
4428;SDS011;2227;47.810;8.810;2024-02-21T12:17:35;852.13;;;765.35;;
4428;SDS011;2227;47.810;8.810;2024-02-21T12:20:03;850.45;;;764.92;;
4428;SDS011;2227;47.810;8.810;2024-02-21T12:22:38;842.53;;;755.80;;
4428;SDS011;2227;47.810;8.810;2024-02-21T12:25:18;844.20;;;757.70;;
4428;SDS011;2227;47.810;8.810;2024-02-21T12:27:49;843.30;;;756.58;;
4428;SDS011;2227;47.810;8.810;2024-02-21T12:30:16;847.67;;;760.67;;
4428;SDS011;2227;47.810;8.810;2024-02-21T12:32:43;841.42;;;754.42;;
4428;SDS011;2227;47.810;8.810;2024-02-21T12:35:10;839.72;;;753.40;;
4428;SDS011;2227;47.810;8.810;2024-02-21T12:37:37;847.38;;;760.45;;
4428;SDS011;2227;47.810;8.810;2024-02-21T12:40:06;846.33;;;758.83;;
4428;SDS011;2227;47.810;8.810;2024-02-21T12:42:33;831.03;;;742.73;;
4428;SDS011;2227;47.810;8.810;2024-02-21T12:45:01;832.00;;;743.97;;
4428;SDS011;2227;47.810;8.810;2024-02-21T12:47:29;804.15;;;716.65;;
4428;SDS011;2227;47.810;8.810;2024-02-21T12:49:56;801.33;;;714.22;;
4428;SDS011;2227;47.810;8.810;2024-02-21T12:52:24;798.90;;;711.67;;
4428;SDS011;2227;47.810;8.810;2024-02-21T12:54:53;795.50;;;707.80;;
4428;SDS011;2227;47.810;8.810;2024-02-21T12:57:23;791.40;;;703.90;;
4428;SDS011;2227;47.810;8.810;2024-02-21T12:59:52;785.27;;;694.97;;
4428;SDS011;2227;47.810;8.810;2024-02-21T13:02:19;787.30;;;700.70;;
4428;SDS011;2227;47.810;8.810;2024-02-21T13:04:46;783.15;;;696.55;;
4428;SDS011;2227;47.810;8.810;2024-02-21T13:07:13;781.30;;;695.00;;
4428;SDS011;2227;47.810;8.810;2024-02-21T13:09:40;782.25;;;693.20;;
4428;SDS011;2227;47.810;8.810;2024-02-21T13:12:07;785.25;;;699.05;;
4428;SDS011;2227;47.810;8.810;2024-02-21T13:14:34;781.20;;;695.40;;
4428;SDS011;2227;47.810;8.810;2024-02-21T13:17:01;785.73;;;699.53;;
4428;SDS011;2227;47.810;8.810;2024-02-21T13:19:28;785.22;;;698.65;;
4428;SDS011;2227;47.810;8.810;2024-02-21T13:21:55;784.75;;;699.15;;
4428;SDS011;2227;47.810;8.810;2024-02-21T13:24:22;795.80;;;709.90;;
4428;SDS011;2227;47.810;8.810;2024-02-21T13:26:49;798.85;;;713.08;;
4428;SDS011;2227;47.810;8.810;2024-02-21T13:29:16;803.42;;;717.03;;
4428;SDS011;2227;47.810;8.810;2024-02-21T13:31:43;806.72;;;721.08;;
4428;SDS011;2227;47.810;8.810;2024-02-21T13:34:10;808.33;;;721.85;;
4428;SDS011;2227;47.810;8.810;2024-02-21T13:36:38;820.05;;;733.50;;
4428;SDS011;2227;47.810;8.810;2024-02-21T13:39:04;830.30;;;744.20;;
4428;SDS011;2227;47.810;8.810;2024-02-21T13:41:31;843.03;;;756.03;;
4428;SDS011;2227;47.810;8.810;2024-02-21T13:43:59;830.65;;;743.22;;
4428;SDS011;2227;47.810;8.810;2024-02-21T13:46:27;838.58;;;752.17;;
4428;SDS011;2227;47.810;8.810;2024-02-21T13:48:54;845.13;;;758.10;;
4428;SDS011;2227;47.810;8.810;2024-02-21T13:51:31;835.22;;;748.42;;
4428;SDS011;2227;47.810;8.810;2024-02-21T13:53:58;828.85;;;742.28;;
4428;SDS011;2227;47.810;8.810;2024-02-21T13:56:25;832.43;;;746.03;;
4428;SDS011;2227;47.810;8.810;2024-02-21T13:58:52;836.35;;;749.95;;
4428;SDS011;2227;47.810;8.810;2024-02-21T14:01:19;824.15;;;738.53;;
4428;SDS011;2227;47.810;8.810;2024-02-21T14:03:46;836.90;;;750.92;;
4428;SDS011;2227;47.810;8.810;2024-02-21T14:06:13;832.60;;;746.47;;
4428;SDS011;2227;47.810;8.810;2024-02-21T14:08:40;816.33;;;730.22;;
4428;SDS011;2227;47.810;8.810;2024-02-21T14:11:07;824.58;;;737.50;;
4428;SDS011;2227;47.810;8.810;2024-02-21T14:13:34;810.13;;;721.93;;
4428;SDS011;2227;47.810;8.810;2024-02-21T14:16:01;803.13;;;717.83;;
4428;SDS011;2227;47.810;8.810;2024-02-21T14:18:28;800.42;;;715.13;;
4428;SDS011;2227;47.810;8.810;2024-02-21T14:20:55;804.63;;;719.65;;
4428;SDS011;2227;47.810;8.810;2024-02-21T14:23:22;805.72;;;720.53;;
4428;SDS011;2227;47.810;8.810;2024-02-21T14:25:49;800.57;;;716.17;;
4428;SDS011;2227;47.810;8.810;2024-02-21T14:28:16;798.88;;;714.28;;
4428;SDS011;2227;47.810;8.810;2024-02-21T14:30:47;808.35;;;723.38;;
4428;SDS011;2227;47.810;8.810;2024-02-21T14:33:14;796.17;;;711.72;;
4428;SDS011;2227;47.810;8.810;2024-02-21T14:35:41;795.33;;;710.63;;
4428;SDS011;2227;47.810;8.810;2024-02-21T14:38:08;798.78;;;715.05;;
4428;SDS011;2227;47.810;8.810;2024-02-21T14:40:35;801.67;;;718.28;;
4428;SDS011;2227;47.810;8.810;2024-02-21T14:43:02;801.00;;;717.77;;
4428;SDS011;2227;47.810;8.810;2024-02-21T14:45:29;825.35;;;741.25;;
4428;SDS011;2227;47.810;8.810;2024-02-21T14:47:56;827.33;;;743.22;;
4428;SDS011;2227;47.810;8.810;2024-02-21T14:50:23;831.97;;;747.78;;
4428;SDS011;2227;47.810;8.810;2024-02-21T14:52:50;824.42;;;740.42;;
4428;SDS011;2227;47.810;8.810;2024-02-21T14:55:17;830.80;;;746.80;;
4428;SDS011;2227;47.810;8.810;2024-02-21T14:57:44;831.20;;;746.87;;
4428;SDS011;2227;47.810;8.810;2024-02-21T15:00:11;832.38;;;748.38;;
4428;SDS011;2227;47.810;8.810;2024-02-21T15:02:38;829.97;;;745.78;;
4428;SDS011;2227;47.810;8.810;2024-02-21T15:05:05;828.53;;;744.53;;
4428;SDS011;2227;47.810;8.810;2024-02-21T15:07:33;831.63;;;747.42;;
4428;SDS011;2227;47.810;8.810;2024-02-21T15:10:00;833.10;;;749.30;;
4428;SDS011;2227;47.810;8.810;2024-02-21T15:12:27;834.45;;;751.00;;
4428;SDS011;2227;47.810;8.810;2024-02-21T15:14:54;831.92;;;748.08;;
4428;SDS011;2227;47.810;8.810;2024-02-21T15:17:21;838.08;;;754.03;;
4428;SDS011;2227;47.810;8.810;2024-02-21T15:19:47;836.00;;;752.28;;
4428;SDS011;2227;47.810;8.810;2024-02-21T15:22:14;833.50;;;749.80;;
4428;SDS011;2227;47.810;8.810;2024-02-21T15:24:43;832.80;;;748.90;;
4428;SDS011;2227;47.810;8.810;2024-02-21T15:27:14;834.05;;;750.15;;
4428;SDS011;2227;47.810;8.810;2024-02-21T15:29:42;830.97;;;747.17;;
4428;SDS011;2227;47.810;8.810;2024-02-21T15:32:09;838.65;;;753.85;;
4428;SDS011;2227;47.810;8.810;2024-02-21T15:34:36;836.67;;;751.78;;
4428;SDS011;2227;47.810;8.810;2024-02-21T15:37:03;832.88;;;747.88;;
4428;SDS011;2227;47.810;8.810;2024-02-21T15:39:30;830.38;;;745.88;;
4428;SDS011;2227;47.810;8.810;2024-02-21T15:41:57;827.58;;;743.45;;
4428;SDS011;2227;47.810;8.810;2024-02-21T15:44:24;828.40;;;743.88;;
4428;SDS011;2227;47.810;8.810;2024-02-21T15:46:51;828.73;;;743.93;;
4428;SDS011;2227;47.810;8.810;2024-02-21T15:49:20;830.30;;;745.60;;
4428;SDS011;2227;47.810;8.810;2024-02-21T15:51:47;827.35;;;743.05;;
4428;SDS011;2227;47.810;8.810;2024-02-21T15:54:14;821.03;;;737.05;;
4428;SDS011;2227;47.810;8.810;2024-02-21T15:56:48;822.05;;;737.85;;
4428;SDS011;2227;47.810;8.810;2024-02-21T15:59:15;826.20;;;741.97;;
4428;SDS011;2227;47.810;8.810;2024-02-21T16:01:42;829.92;;;745.35;;
4428;SDS011;2227;47.810;8.810;2024-02-21T16:04:09;798.83;;;715.22;;
4428;SDS011;2227;47.810;8.810;2024-02-21T16:06:36;810.67;;;725.97;;
4428;SDS011;2227;47.810;8.810;2024-02-21T16:09:03;804.13;;;719.92;;
4428;SDS011;2227;47.810;8.810;2024-02-21T16:11:31;797.25;;;713.30;;
4428;SDS011;2227;47.810;8.810;2024-02-21T16:14:00;801.95;;;717.83;;
4428;SDS011;2227;47.810;8.810;2024-02-21T16:16:28;794.22;;;710.13;;
4428;SDS011;2227;47.810;8.810;2024-02-21T16:18:57;800.78;;;716.88;;
4428;SDS011;2227;47.810;8.810;2024-02-21T16:21:24;804.22;;;719.90;;
4428;SDS011;2227;47.810;8.810;2024-02-21T16:23:51;790.58;;;706.15;;
4428;SDS011;2227;47.810;8.810;2024-02-21T16:26:18;787.08;;;703.67;;
4428;SDS011;2227;47.810;8.810;2024-02-21T16:28:45;793.22;;;708.92;;
4428;SDS011;2227;47.810;8.810;2024-02-21T16:31:12;782.95;;;699.10;;
4428;SDS011;2227;47.810;8.810;2024-02-21T16:33:38;775.65;;;690.95;;
4428;SDS011;2227;47.810;8.810;2024-02-21T16:36:07;779.55;;;695.00;;
4428;SDS011;2227;47.810;8.810;2024-02-21T16:38:35;771.63;;;687.35;;
4428;SDS011;2227;47.810;8.810;2024-02-21T16:41:06;776.08;;;692.00;;
4428;SDS011;2227;47.810;8.810;2024-02-21T16:43:33;776.60;;;693.00;;
4428;SDS011;2227;47.810;8.810;2024-02-21T16:46:00;774.33;;;691.03;;
4428;SDS011;2227;47.810;8.810;2024-02-21T16:48:27;778.65;;;694.97;;
4428;SDS011;2227;47.810;8.810;2024-02-21T16:50:55;777.83;;;694.33;;
4428;SDS011;2227;47.810;8.810;2024-02-21T16:53:26;781.63;;;697.55;;
4428;SDS011;2227;47.810;8.810;2024-02-21T16:55:54;782.63;;;699.45;;
4428;SDS011;2227;47.810;8.810;2024-02-21T16:58:21;773.75;;;690.83;;
4428;SDS011;2227;47.810;8.810;2024-02-21T17:00:48;777.30;;;694.42;;
4428;SDS011;2227;47.810;8.810;2024-02-21T17:03:15;779.42;;;696.35;;
4428;SDS011;2227;47.810;8.810;2024-02-21T17:05:47;776.53;;;692.95;;
4428;SDS011;2227;47.810;8.810;2024-02-21T17:08:23;775.72;;;692.03;;
4428;SDS011;2227;47.810;8.810;2024-02-21T17:10:50;771.88;;;688.58;;
4428;SDS011;2227;47.810;8.810;2024-02-21T17:13:18;781.13;;;697.22;;
4428;SDS011;2227;47.810;8.810;2024-02-21T17:15:44;776.25;;;692.95;;
4428;SDS011;2227;47.810;8.810;2024-02-21T17:18:12;774.53;;;691.33;;
4428;SDS011;2227;47.810;8.810;2024-02-21T17:20:38;771.83;;;688.42;;
4428;SDS011;2227;47.810;8.810;2024-02-21T17:23:05;772.23;;;688.90;;
4428;SDS011;2227;47.810;8.810;2024-02-21T17:25:32;777.53;;;693.35;;
4428;SDS011;2227;47.810;8.810;2024-02-21T17:27:59;780.03;;;696.00;;
4428;SDS011;2227;47.810;8.810;2024-02-21T17:30:26;777.50;;;693.65;;
4428;SDS011;2227;47.810;8.810;2024-02-21T17:32:53;784.57;;;698.37;;
4428;SDS011;2227;47.810;8.810;2024-02-21T17:35:19;769.08;;;685.58;;
4428;SDS011;2227;47.810;8.810;2024-02-21T17:37:46;772.22;;;688.22;;
4428;SDS011;2227;47.810;8.810;2024-02-21T17:40:13;772.55;;;688.05;;
4428;SDS011;2227;47.810;8.810;2024-02-21T17:42:41;773.65;;;689.35;;
4428;SDS011;2227;47.810;8.810;2024-02-21T17:45:07;769.87;;;685.37;;
4428;SDS011;2227;47.810;8.810;2024-02-21T17:47:35;767.63;;;683.28;;
4428;SDS011;2227;47.810;8.810;2024-02-21T17:50:01;775.13;;;690.03;;
4428;SDS011;2227;47.810;8.810;2024-02-21T17:52:28;767.85;;;683.45;;
4428;SDS011;2227;47.810;8.810;2024-02-21T17:54:57;764.97;;;680.53;;
4428;SDS011;2227;47.810;8.810;2024-02-21T17:57:24;765.03;;;680.60;;
4428;SDS011;2227;47.810;8.810;2024-02-21T17:59:52;763.63;;;679.53;;
4428;SDS011;2227;47.810;8.810;2024-02-21T18:02:19;766.83;;;682.53;;
4428;SDS011;2227;47.810;8.810;2024-02-21T18:04:50;770.95;;;686.67;;
4428;SDS011;2227;47.810;8.810;2024-02-21T18:07:17;768.17;;;684.17;;
4428;SDS011;2227;47.810;8.810;2024-02-21T18:09:46;764.58;;;679.83;;
4428;SDS011;2227;47.810;8.810;2024-02-21T18:12:13;766.15;;;681.80;;
4428;SDS011;2227;47.810;8.810;2024-02-21T18:14:40;767.85;;;683.33;;
4428;SDS011;2227;47.810;8.810;2024-02-21T18:17:07;753.83;;;664.75;;
4428;SDS011;2227;47.810;8.810;2024-02-21T18:19:34;751.10;;;656.67;;
4428;SDS011;2227;47.810;8.810;2024-02-21T18:22:01;751.53;;;660.43;;
4428;SDS011;2227;47.810;8.810;2024-02-21T18:24:28;751.08;;;659.33;;
4428;SDS011;2227;47.810;8.810;2024-02-21T18:26:57;748.60;;;657.95;;
4428;SDS011;2227;47.810;8.810;2024-02-21T18:29:24;749.15;;;657.67;;
4428;SDS011;2227;47.810;8.810;2024-02-21T18:32:05;750.15;;;656.08;;
4428;SDS011;2227;47.810;8.810;2024-02-21T18:34:35;755.42;;;665.65;;
4428;SDS011;2227;47.810;8.810;2024-02-21T18:37:03;760.60;;;676.60;;
4428;SDS011;2227;47.810;8.810;2024-02-21T18:39:30;760.20;;;676.25;;
4428;SDS011;2227;47.810;8.810;2024-02-21T18:41:58;759.50;;;672.03;;
4428;SDS011;2227;47.810;8.810;2024-02-21T18:44:24;768.05;;;669.47;;
4428;SDS011;2227;47.810;8.810;2024-02-21T18:46:51;763.75;;;654.55;;
4428;SDS011;2227;47.810;8.810;2024-02-21T18:49:18;752.23;;;653.77;;
4428;SDS011;2227;47.810;8.810;2024-02-21T18:51:45;752.13;;;652.05;;
4428;SDS011;2227;47.810;8.810;2024-02-21T18:54:12;751.35;;;658.45;;
4428;SDS011;2227;47.810;8.810;2024-02-21T18:56:43;759.97;;;675.78;;
4428;SDS011;2227;47.810;8.810;2024-02-21T18:59:14;756.42;;;659.15;;
4428;SDS011;2227;47.810;8.810;2024-02-21T19:01:41;763.95;;;679.85;;
4428;SDS011;2227;47.810;8.810;2024-02-21T19:04:08;769.25;;;677.30;;
4428;SDS011;2227;47.810;8.810;2024-02-21T19:06:35;768.97;;;684.30;;
4428;SDS011;2227;47.810;8.810;2024-02-21T19:09:03;764.28;;;678.30;;
4428;SDS011;2227;47.810;8.810;2024-02-21T19:11:30;765.38;;;680.78;;
4428;SDS011;2227;47.810;8.810;2024-02-21T19:13:57;762.03;;;675.45;;
4428;SDS011;2227;47.810;8.810;2024-02-21T19:16:24;773.42;;;688.60;;
4428;SDS011;2227;47.810;8.810;2024-02-21T19:18:53;766.63;;;681.53;;
4428;SDS011;2227;47.810;8.810;2024-02-21T19:21:20;762.67;;;678.17;;
4428;SDS011;2227;47.810;8.810;2024-02-21T19:23:46;769.28;;;684.67;;
4428;SDS011;2227;47.810;8.810;2024-02-21T19:26:13;760.88;;;675.00;;
4428;SDS011;2227;47.810;8.810;2024-02-21T19:28:41;764.50;;;679.95;;